Terminal Aerodrome Forecast
Issued by NWS

Home | Current Version | Previous Version | Text Only | Print | Product List | Glossary On
Versions: 1 2 3 4 5 6 7 8 9 10 11 12 13 14 15 16 17
000
FTUS43 KGRR 231744
TAFLAN
TAF
KLAN 231744Z 2318/2418 15006KT P6SM BKN100
     FM231900 15012KT P6SM OVC070
     FM240400 17010KT P6SM -SHRA OVC040
     FM240600 19011KT 4SM -SHRA OVC035
     FM241000 20011KT 5SM BR VCSH OVC025=

USA.gov is the U.S. government's official web portal to all federal, state and local government web resources and services.